Time,TemperatureF,DewpointF,PressureIn,WindDirection,WindDirectionDegrees,WindSpeedMPH,WindSpeedGustMPH,Humidity,HourlyPrecipIn,Conditions,Clouds,dailyrainin,SoftwareType,DateUTC
2013-05-27 00:00:00,56.7,54.0,29.77,ENE,67,0.0,4.0,91,0.00,,,0.00,VWS V14.01,2013-05-27 05:00:00,
2013-05-27 00:01:00,55.6,53.5,29.73,East,90,0.0,0.0,93,0.00,,,0.00,VWS V14.01,2013-05-27 05:01:00,
2013-05-27 00:06:00,55.5,53.4,29.74,East,90,0.0,2.0,93,0.00,,,0.00,VWS V14.01,2013-05-27 05:06:00,
2013-05-27 00:11:00,55.3,53.2,29.74,East,90,1.0,3.0,93,0.00,,,0.00,VWS V14.01,2013-05-27 05:11:00,
2013-05-27 00:15:00,56.4,54.0,29.76,East,90,0.0,5.0,92,0.00,,,0.00,VWS V14.01,2013-05-27 05:15:00,
2013-05-27 00:16:00,55.3,53.5,29.74,East,90,0.0,0.0,94,0.00,,,0.00,VWS V14.01,2013-05-27 05:16:00,
2013-05-27 00:21:00,55.2,53.4,29.74,East,90,0.0,1.0,94,0.00,,,0.00,VWS V14.01,2013-05-27 05:21:00,
2013-05-27 00:26:00,55.0,53.2,29.73,ENE,76,0.0,3.0,94,0.00,,,0.00,VWS V14.01,2013-05-27 05:26:00,
2013-05-27 00:30:00,56.0,53.6,29.75,ENE,74,1.0,6.0,92,0.00,,,0.00,VWS V14.01,2013-05-27 05:30:00,
2013-05-27 00:31:00,55.0,53.2,29.73,ENE,69,4.0,7.0,94,0.00,,,0.00,VWS V14.01,2013-05-27 05:31:00,
2013-05-27 00:36:00,55.1,53.3,29.73,ENE,74,4.0,7.0,94,0.00,,,0.00,VWS V14.01,2013-05-27 05:36:00,
2013-05-27 00:41:00,55.1,53.3,29.73,ESE,117,5.0,7.0,94,0.00,,,0.00,VWS V14.01,2013-05-27 05:41:00,
2013-05-27 00:45:00,55.8,53.4,29.74,ENE,75,2.0,7.0,92,0.00,,,0.00,VWS V14.01,2013-05-27 05:45:00,
2013-05-27 00:46:00,55.0,53.2,29.74,ESE,119,3.0,7.0,94,0.00,,,0.00,VWS V14.01,2013-05-27 05:46:00,
2013-05-27 00:51:00,54.8,53.3,29.74,SE,132,3.0,7.0,95,0.00,,,0.00,VWS V14.01,2013-05-27 05:51:00,
2013-05-27 00:56:00,55.0,53.5,29.74,SSE,153,8.0,10.0,95,0.00,,,0.00,VWS V14.01,2013-05-27 05:56:00,
2013-05-27 01:00:00,55.6,53.5,29.73,East,90,0.0,5.0,93,0.00,,,0.00,VWS V14.01,2013-05-27 06:00:00,
2013-05-27 01:01:00,55.1,53.6,29.73,SE,126,4.0,7.0,95,0.00,,,0.00,VWS V14.01,2013-05-27 06:01:00,
2013-05-27 01:06:00,55.1,53.6,29.73,ESE,103,2.0,10.0,95,0.00,,,0.00,VWS V14.01,2013-05-27 06:06:00,
2013-05-27 01:11:00,55.0,53.5,29.74,ESE,105,4.0,10.0,95,0.00,,,0.00,VWS V14.01,2013-05-27 06:11:00,
2013-05-27 01:15:00,55.3,53.2,29.74,East,90,0.0,3.0,93,0.00,,,0.00,VWS V14.01,2013-05-27 06:15:00,
2013-05-27 01:16:00,55.0,53.5,29.74,ESE,118,3.0,6.0,95,0.00,,,0.00,VWS V14.01,2013-05-27 06:16:00,
2013-05-27 01:21:00,54.9,53.4,29.74,ESE,113,4.0,8.0,95,0.00,,,0.00,VWS V14.01,2013-05-27 06:21:00,
2013-05-27 01:26:00,54.8,53.3,29.74,East,101,3.0,8.0,95,0.00,,,0.00,VWS V14.01,2013-05-27 06:26:00,
2013-05-27 01:30:00,55.0,53.2,29.73,East,80,1.0,5.0,94,0.00,,,0.00,VWS V14.01,2013-05-27 06:30:00,
2013-05-27 01:31:00,54.8,53.3,29.74,ESE,120,4.0,7.0,95,0.00,,,0.00,VWS V14.01,2013-05-27 06:31:00,
2013-05-27 01:36:00,54.8,53.3,29.75,SE,134,2.0,7.0,95,0.00,,,0.00,VWS V14.01,2013-05-27 06:36:00,
2013-05-27 01:41:00,54.8,53.3,29.74,East,90,1.0,8.0,95,0.00,,,0.00,VWS V14.01,2013-05-27 06:41:00,
2013-05-27 01:45:00,55.0,53.2,29.74,ESE,116,4.0,7.0,94,0.00,,,0.00,VWS V14.01,2013-05-27 06:45:00,
2013-05-27 01:46:00,54.5,53.0,29.74,East,95,1.0,2.0,95,0.00,,,0.00,VWS V14.01,2013-05-27 06:46:00,
2013-05-27 01:51:00,54.5,53.0,29.74,ESE,108,1.0,8.0,95,0.00,,,0.00,VWS V14.01,2013-05-27 06:51:00,
2013-05-27 01:56:00,54.3,52.8,29.73,ESE,113,3.0,9.0,95,0.00,,,0.00,VWS V14.01,2013-05-27 06:56:00,
2013-05-27 02:00:00,55.1,53.6,29.73,ESE,102,3.0,13.0,95,0.00,,,0.00,VWS V14.01,2013-05-27 07:00:00,
2013-05-27 02:01:00,54.2,52.7,29.73,East,84,2.0,8.0,95,0.00,,,0.00,VWS V14.01,2013-05-27 07:01:00,
2013-05-27 02:06:00,54.1,52.6,29.72,ESE,107,2.0,11.0,95,0.00,,,0.00,VWS V14.01,2013-05-27 07:06:00,
2013-05-27 02:11:00,54.0,52.5,29.73,ESE,104,5.0,11.0,95,0.00,,,0.00,VWS V14.01,2013-05-27 07:11:00,
2013-05-27 02:15:00,55.0,53.5,29.74,East,90,3.0,11.0,95,0.00,,,0.00,VWS V14.01,2013-05-27 07:15:00,
2013-05-27 02:16:00,53.9,52.4,29.73,ESE,114,4.0,13.0,95,0.00,,,0.00,VWS V14.01,2013-05-27 07:16:00,
2013-05-27 02:21:00,53.7,52.2,29.73,East,101,3.0,14.0,95,0.00,,,0.00,VWS V14.01,2013-05-27 07:21:00,
2013-05-27 02:26:00,53.7,52.2,29.73,SE,128,8.0,14.0,95,0.00,,,0.00,VWS V14.01,2013-05-27 07:26:00,
2013-05-27 02:30:00,54.8,53.3,29.74,ESE,112,4.0,8.0,95,0.00,,,0.00,VWS V14.01,2013-05-27 07:30:00,
2013-05-27 02:31:00,53.7,52.2,29.74,SE,130,12.0,12.0,95,0.00,,,0.00,VWS V14.01,2013-05-27 07:31:00,
2013-05-27 02:36:00,53.7,52.2,29.74,ESE,121,4.0,17.0,95,0.00,,,0.00,VWS V14.01,2013-05-27 07:36:00,
2013-05-27 02:41:00,53.8,52.3,29.74,SE,134,12.0,17.0,95,0.00,,,0.00,VWS V14.01,2013-05-27 07:41:00,
2013-05-27 02:45:00,54.6,53.1,29.74,East,98,0.0,8.0,95,0.00,,,0.00,VWS V14.01,2013-05-27 07:45:00,
2013-05-27 02:46:00,53.8,52.3,29.74,SE,146,6.0,14.0,95,0.00,,,0.00,VWS V14.01,2013-05-27 07:46:00,
2013-05-27 02:51:00,53.8,52.3,29.74,SE,144,8.0,14.0,95,0.00,,,0.00,VWS V14.01,2013-05-27 07:51:00,
2013-05-27 02:56:00,53.9,52.7,29.74,SE,132,5.0,14.0,96,0.00,,,0.00,VWS V14.01,2013-05-27 07:56:00,
2013-05-27 03:00:00,54.2,52.7,29.73,ESE,111,4.0,9.0,95,0.00,,,0.00,VWS V14.01,2013-05-27 08:00:00,
2013-05-27 03:01:00,53.9,52.7,29.74,SE,139,7.0,7.0,96,0.00,,,0.00,VWS V14.01,2013-05-27 08:01:00,
2013-05-27 03:06:00,53.9,52.7,29.73,SE,134,10.0,15.0,96,0.00,,,0.00,VWS V14.01,2013-05-27 08:06:00,
2013-05-27 03:11:00,53.9,52.7,29.73,SSE,150,9.0,16.0,96,0.00,,,0.00,VWS V14.01,2013-05-27 08:11:00,
2013-05-27 03:15:00,53.8,52.3,29.73,SE,133,12.0,12.0,95,0.00,,,0.00,VWS V14.01,2013-05-27 08:15:00,
2013-05-27 03:16:00,53.9,52.7,29.74,SE,140,9.0,14.0,96,0.00,,,0.00,VWS V14.01,2013-05-27 08:16:00,
2013-05-27 03:21:00,53.6,52.4,29.74,SE,140,7.0,16.0,96,0.00,,,0.00,VWS V14.01,2013-05-27 08:21:00,
2013-05-27 03:26:00,53.5,52.3,29.75,ESE,109,10.0,17.0,96,0.00,,,0.00,VWS V14.01,2013-05-27 08:26:00,
2013-05-27 03:30:00,53.7,52.2,29.74,SSE,153,9.0,15.0,95,0.00,,,0.00,VWS V14.01,2013-05-27 08:30:00,
2013-05-27 03:31:00,53.5,52.3,29.74,ESE,112,7.0,10.0,96,0.00,,,0.00,VWS V14.01,2013-05-27 08:31:00,
2013-05-27 03:36:00,53.5,52.3,29.74,SSE,151,8.0,17.0,96,0.00,,,0.00,VWS V14.01,2013-05-27 08:36:00,
2013-05-27 03:41:00,53.4,52.2,29.73,SSE,155,9.0,18.0,96,0.00,,,0.00,VWS V14.01,2013-05-27 08:41:00,
2013-05-27 03:45:00,53.8,52.3,29.74,SE,125,9.0,17.0,95,0.00,,,0.00,VWS V14.01,2013-05-27 08:45:00,
2013-05-27 03:46:00,53.2,52.0,29.73,SE,134,7.0,11.0,96,0.00,,,0.00,VWS V14.01,2013-05-27 08:46:00,
2013-05-27 03:51:00,53.1,51.9,29.72,SE,138,9.0,14.0,96,0.00,,,0.00,VWS V14.01,2013-05-27 08:51:00,
2013-05-27 03:56:00,53.1,51.9,29.72,SSE,153,7.0,15.0,96,0.00,,,0.00,VWS V14.01,2013-05-27 08:56:00,
2013-05-27 04:00:00,53.9,52.7,29.74,SE,134,8.0,14.0,96,0.00,,,0.00,VWS V14.01,2013-05-27 09:00:00,
2013-05-27 04:01:00,53.0,51.8,29.73,SE,130,4.0,9.0,96,0.00,,,0.00,VWS V14.01,2013-05-27 09:01:00,
2013-05-27 04:06:00,52.9,51.7,29.72,SSE,150,3.0,13.0,96,0.00,,,0.00,VWS V14.01,2013-05-27 09:06:00,
2013-05-27 04:11:00,52.9,51.7,29.72,SSE,150,4.0,13.0,96,0.00,,,0.00,VWS V14.01,2013-05-27 09:11:00,
2013-05-27 04:15:00,53.9,52.7,29.74,ESE,122,13.0,21.0,96,0.00,,,0.00,VWS V14.01,2013-05-27 09:15:00,
2013-05-27 04:16:00,52.9,51.7,29.72,SE,145,5.0,8.0,96,0.00,,,0.00,VWS V14.01,2013-05-27 09:16:00,
2013-05-27 04:21:00,52.9,51.7,29.72,SE,144,6.0,13.0,96,0.00,,,0.00,VWS V14.01,2013-05-27 09:21:00,
2013-05-27 04:26:00,52.9,52.0,29.72,SE,145,10.0,13.0,97,0.00,,,0.00,VWS V14.01,2013-05-27 09:26:00,
2013-05-27 04:30:00,53.5,52.3,29.74,SE,127,8.0,17.0,96,0.00,,,0.00,VWS V14.01,2013-05-27 09:30:00,
2013-05-27 04:31:00,52.9,52.0,29.72,SE,131,6.0,7.0,97,0.00,,,0.00,VWS V14.01,2013-05-27 09:31:00,
2013-05-27 04:36:00,52.9,52.0,29.72,SE,142,8.0,12.0,97,0.00,,,0.00,VWS V14.01,2013-05-27 09:36:00,
2013-05-27 04:41:00,52.8,51.9,29.71,SSE,149,2.0,12.0,97,0.00,,,0.00,VWS V14.01,2013-05-27 09:41:00,
2013-05-27 04:45:00,53.2,52.0,29.73,SE,144,8.0,18.0,96,0.00,,,0.00,VWS V14.01,2013-05-27 09:45:00,
2013-05-27 04:46:00,52.8,51.9,29.70,ESE,109,5.0,8.0,97,0.00,,,0.00,VWS V14.01,2013-05-27 09:46:00,
2013-05-27 04:51:00,52.8,51.9,29.71,SE,141,6.0,8.0,97,0.00,,,0.00,VWS V14.01,2013-05-27 09:51:00,
2013-05-27 04:56:00,52.9,52.0,29.72,SSE,162,3.0,9.0,97,0.00,,,0.00,VWS V14.01,2013-05-27 09:56:00,
2013-05-27 05:00:00,53.0,51.8,29.72,ESE,115,10.0,15.0,96,0.00,,,0.00,VWS V14.01,2013-05-27 10:00:00,
2013-05-27 05:01:00,53.0,52.1,29.73,South,169,4.0,6.0,97,0.00,,,0.00,VWS V14.01,2013-05-27 10:01:00,
2013-05-27 05:06:00,53.0,52.1,29.73,South,177,4.0,7.0,97,0.00,,,0.00,VWS V14.01,2013-05-27 10:06:00,
2013-05-27 05:11:00,53.0,52.1,29.74,South,179,3.0,7.0,97,0.00,,,0.00,VWS V14.01,2013-05-27 10:11:00,
2013-05-27 05:15:00,52.9,51.7,29.72,SSE,167,7.0,13.0,96,0.00,,,0.00,VWS V14.01,2013-05-27 10:15:00,
2013-05-27 05:16:00,53.0,52.1,29.74,South,187,3.0,4.0,97,0.00,,,0.00,VWS V14.01,2013-05-27 10:16:00,
2013-05-27 05:21:00,53.1,52.2,29.74,SSE,168,4.0,5.0,97,0.00,,,0.00,VWS V14.01,2013-05-27 10:21:00,
2013-05-27 05:26:00,53.1,52.2,29.74,SSE,151,1.0,5.0,97,0.00,,,0.00,VWS V14.01,2013-05-27 10:26:00,
2013-05-27 05:30:00,52.9,52.0,29.72,SSE,148,6.0,15.0,97,0.00,,,0.00,VWS V14.01,2013-05-27 10:30:00,
2013-05-27 05:31:00,53.1,52.2,29.74,SSE,151,0.0,0.0,97,0.00,,,0.00,VWS V14.01,2013-05-27 10:31:00,
2013-05-27 05:36:00,53.1,52.2,29.74,SSE,150,0.0,0.0,97,0.00,,,0.00,VWS V14.01,2013-05-27 10:36:00,
2013-05-27 05:41:00,53.0,52.1,29.74,SSE,150,0.0,0.0,97,0.00,,,0.00,VWS V14.01,2013-05-27 10:41:00,
2013-05-27 05:45:00,52.8,51.9,29.71,SE,138,3.0,12.0,97,0.00,,,0.00,VWS V14.01,2013-05-27 10:45:00,
2013-05-27 05:46:00,53.0,52.1,29.74,SSE,150,0.0,0.0,97,0.00,,,0.00,VWS V14.01,2013-05-27 10:46:00,
2013-05-27 05:51:00,52.9,52.0,29.74,SSE,151,0.0,0.0,97,0.00,,,0.00,VWS V14.01,2013-05-27 10:51:00,
2013-05-27 05:56:00,52.9,52.0,29.74,SSE,151,0.0,0.0,97,0.00,,,0.00,VWS V14.01,2013-05-27 10:56:00,
2013-05-27 06:00:00,52.9,52.0,29.73,South,191,3.0,9.0,97,0.00,,,0.00,VWS V14.01,2013-05-27 11:00:00,
2013-05-27 06:01:00,52.9,52.0,29.74,SSE,151,0.0,0.0,97,0.00,,,0.00,VWS V14.01,2013-05-27 11:01:00,
2013-05-27 06:06:00,53.0,52.1,29.73,SSE,151,0.0,0.0,97,0.00,,,0.00,VWS V14.01,2013-05-27 11:06:00,
2013-05-27 06:11:00,53.0,52.1,29.74,SSE,151,0.0,0.0,97,0.00,,,0.00,VWS V14.01,2013-05-27 11:11:00,
2013-05-27 06:15:00,53.0,52.1,29.74,SSE,159,3.0,7.0,97,0.00,,,0.00,VWS V14.01,2013-05-27 11:15:00,
2013-05-27 06:16:00,53.1,52.2,29.74,SE,142,0.0,2.0,97,0.00,,,0.00,VWS V14.01,2013-05-27 11:16:00,
2013-05-27 06:21:00,53.2,52.3,29.75,SE,130,4.0,6.0,97,0.00,,,0.00,VWS V14.01,2013-05-27 11:21:00,
2013-05-27 06:26:00,53.3,52.4,29.75,ESE,110,1.0,6.0,97,0.00,,,0.00,VWS V14.01,2013-05-27 11:26:00,
2013-05-27 06:30:00,53.1,52.2,29.74,SSE,151,0.0,5.0,97,0.00,,,0.00,VWS V14.01,2013-05-27 11:30:00,
2013-05-27 06:31:00,53.3,52.4,29.75,East,96,5.0,6.0,97,0.00,,,0.00,VWS V14.01,2013-05-27 11:31:00,
2013-05-27 06:36:00,53.2,52.3,29.75,East,94,1.0,6.0,97,0.00,,,0.00,VWS V14.01,2013-05-27 11:36:00,
2013-05-27 06:41:00,53.2,52.3,29.75,East,97,2.0,6.0,97,0.00,,,0.00,VWS V14.01,2013-05-27 11:41:00,
2013-05-27 06:45:00,53.0,52.1,29.74,SSE,150,0.0,0.0,97,0.00,,,0.00,VWS V14.01,2013-05-27 11:45:00,
2013-05-27 06:46:00,53.1,52.2,29.74,East,86,5.0,7.0,97,0.00,,,0.00,VWS V14.01,2013-05-27 11:46:00,
2013-05-27 06:51:00,53.1,52.2,29.74,ESE,115,2.0,7.0,97,0.00,,,0.00,VWS V14.01,2013-05-27 11:51:00,
2013-05-27 06:56:00,53.0,52.1,29.75,ESE,115,3.0,7.0,97,0.00,,,0.00,VWS V14.01,2013-05-27 11:56:00,
2013-05-27 07:00:00,52.9,52.0,29.74,SSE,151,0.0,0.0,97,0.00,,,0.00,VWS V14.01,2013-05-27 12:00:00,
2013-05-27 07:01:00,53.0,52.1,29.75,ESE,113,5.0,7.0,97,0.00,,,0.00,VWS V14.01,2013-05-27 12:01:00,
2013-05-27 07:06:00,53.0,52.1,29.75,East,94,0.0,7.0,97,0.00,,,0.00,VWS V14.01,2013-05-27 12:06:00,
2013-05-27 07:11:00,53.0,52.1,29.75,East,96,1.0,7.0,97,0.00,,,0.00,VWS V14.01,2013-05-27 12:11:00,
2013-05-27 07:15:00,53.1,52.2,29.75,SE,143,0.0,0.0,97,0.00,,,0.00,VWS V14.01,2013-05-27 12:15:00,
2013-05-27 07:16:00,53.0,52.1,29.74,East,94,0.0,1.0,97,0.01,,,0.01,VWS V14.01,2013-05-27 12:16:00,
2013-05-27 07:21:00,53.0,52.1,29.73,East,82,2.0,7.0,97,0.02,,,0.02,VWS V14.01,2013-05-27 12:21:00,
2013-05-27 07:26:00,52.9,52.0,29.73,ESE,120,3.0,8.0,97,0.02,,,0.02,VWS V14.01,2013-05-27 12:26:00,
2013-05-27 07:30:00,53.3,52.4,29.75,ESE,109,0.0,6.0,97,0.00,,,0.00,VWS V14.01,2013-05-27 12:30:00,
2013-05-27 07:31:00,52.9,52.0,29.73,ESE,112,5.0,6.0,97,0.04,,,0.04,VWS V14.01,2013-05-27 12:31:00,
2013-05-27 07:36:00,52.9,52.0,29.73,SE,134,5.0,9.0,97,0.06,,,0.06,VWS V14.01,2013-05-27 12:36:00,
2013-05-27 07:41:00,52.8,51.9,29.73,East,93,5.0,10.0,97,0.08,,,0.08,VWS V14.01,2013-05-27 12:41:00,
2013-05-27 07:45:00,53.1,52.2,29.74,ENE,74,3.0,6.0,97,0.00,,,0.00,VWS V14.01,2013-05-27 12:45:00,
2013-05-27 07:46:00,52.7,51.8,29.71,East,101,8.0,10.0,97,0.11,,,0.11,VWS V14.01,2013-05-27 12:46:00,
2013-05-27 07:51:00,52.7,51.8,29.70,East,94,8.0,11.0,97,0.12,,,0.12,VWS V14.01,2013-05-27 12:51:00,
2013-05-27 07:56:00,52.6,51.7,29.68,ESE,103,13.0,15.0,97,0.13,,,0.13,VWS V14.01,2013-05-27 12:56:00,
2013-05-27 08:00:00,53.0,52.1,29.75,ESE,117,3.0,7.0,97,0.00,,,0.00,VWS V14.01,2013-05-27 13:00:00,
2013-05-27 08:01:00,52.5,51.6,29.67,East,95,10.0,13.0,97,0.14,,,0.14,VWS V14.01,2013-05-27 13:01:00,
2013-05-27 08:06:00,52.4,51.5,29.65,East,92,16.0,18.0,97,0.14,,,0.14,VWS V14.01,2013-05-27 13:06:00,
2013-05-27 08:11:00,52.4,51.5,29.62,ENE,74,17.0,23.0,97,0.15,,,0.15,VWS V14.01,2013-05-27 13:11:00,
2013-05-27 08:15:00,53.0,52.1,29.74,East,94,1.0,7.0,97,0.01,,,0.01,VWS V14.01,2013-05-27 13:15:00,
2013-05-27 08:16:00,52.3,51.4,29.63,East,80,16.0,16.0,97,0.14,,,0.15,VWS V14.01,2013-05-27 13:16:00,
2013-05-27 08:20:00,52.3,51.4,29.64,East,93,9.0,19.0,97,0.14,,,0.15,VWS V14.01,2013-05-27 13:20:00,
2013-05-27 08:25:00,52.3,51.4,29.64,ESE,103,11.0,20.0,97,0.14,,,0.15,VWS V14.01,2013-05-27 13:25:00,
2013-05-27 08:30:00,52.3,51.4,29.64,ESE,103,8.0,11.0,97,0.11,,,0.15,VWS V14.01,2013-05-27 13:30:00,
2013-05-27 08:35:00,52.2,51.3,29.64,ESE,121,11.0,22.0,97,0.11,,,0.15,VWS V14.01,2013-05-27 13:35:00,
2013-05-27 08:40:00,52.1,51.2,29.64,East,91,10.0,22.0,97,0.11,,,0.15,VWS V14.01,2013-05-27 13:40:00,
2013-05-27 08:45:00,52.1,51.2,29.64,East,86,6.0,11.0,97,0.05,,,0.15,VWS V14.01,2013-05-27 13:45:00,
2013-05-27 08:50:00,52.2,51.3,29.64,ESE,121,12.0,22.0,97,0.05,,,0.15,VWS V14.01,2013-05-27 13:50:00,
2013-05-27 08:55:00,52.1,51.2,29.64,ESE,121,7.0,22.0,97,0.05,,,0.15,VWS V14.01,2013-05-27 13:55:00,
2013-05-27 09:00:00,52.2,51.3,29.64,ESE,110,10.0,15.0,97,0.01,,,0.15,VWS V14.01,2013-05-27 14:00:00,
2013-05-27 09:05:00,52.1,51.2,29.64,ESE,105,8.0,19.0,97,0.01,,,0.15,VWS V14.01,2013-05-27 14:05:00,
2013-05-27 09:10:00,52.1,51.2,29.65,SE,135,12.0,20.0,97,0.01,,,0.15,VWS V14.01,2013-05-27 14:10:00,
2013-05-27 09:15:00,52.1,51.2,29.65,SSE,151,11.0,11.0,97,0.00,,,0.15,VWS V14.01,2013-05-27 14:15:00,
2013-05-27 09:20:00,52.1,51.2,29.65,SE,130,16.0,21.0,97,0.00,,,0.15,VWS V14.01,2013-05-27 14:20:00,
2013-05-27 09:25:00,52.1,51.2,29.66,SSE,152,12.0,21.0,97,0.00,,,0.15,VWS V14.01,2013-05-27 14:25:00,
2013-05-27 09:30:00,52.2,51.3,29.66,SSE,148,8.0,12.0,97,0.00,,,0.15,VWS V14.01,2013-05-27 14:30:00,
2013-05-27 09:35:00,52.2,51.3,29.66,SSE,159,14.0,16.0,97,0.00,,,0.15,VWS V14.01,2013-05-27 14:35:00,
2013-05-27 09:40:00,52.1,51.2,29.66,SE,139,14.0,20.0,97,0.00,,,0.15,VWS V14.01,2013-05-27 14:40:00,
2013-05-27 09:45:00,52.1,51.2,29.65,SSE,153,18.0,18.0,97,0.00,,,0.15,VWS V14.01,2013-05-27 14:45:00,
2013-05-27 09:50:00,52.2,51.3,29.65,ESE,123,7.0,20.0,97,0.00,,,0.15,VWS V14.01,2013-05-27 14:50:00,
2013-05-27 09:55:00,52.4,51.8,29.65,SSE,155,14.0,20.0,98,0.00,,,0.15,VWS V14.01,2013-05-27 14:55:00,
2013-05-27 10:00:00,52.5,51.9,29.65,ESE,117,12.0,12.0,98,0.00,,,0.15,VWS V14.01,2013-05-27 15:00:00,
2013-05-27 10:05:00,52.6,52.0,29.66,SE,128,7.0,16.0,98,0.00,,,0.15,VWS V14.01,2013-05-27 15:05:00,
2013-05-27 10:10:00,52.6,51.7,29.65,SSE,158,7.0,17.0,97,0.00,,,0.15,VWS V14.01,2013-05-27 15:10:00,
2013-05-27 10:15:00,52.7,51.8,29.65,SSE,151,14.0,14.0,97,0.00,,,0.15,VWS V14.01,2013-05-27 15:15:00,
2013-05-27 10:20:00,52.8,51.9,29.65,South,178,12.0,15.0,97,0.00,,,0.15,VWS V14.01,2013-05-27 15:20:00,
2013-05-27 10:25:00,52.9,52.0,29.65,SE,136,9.0,15.0,97,0.00,,,0.15,VWS V14.01,2013-05-27 15:25:00,
2013-05-27 10:30:00,53.2,52.3,29.65,ESE,119,5.0,8.0,97,0.00,,,0.15,VWS V14.01,2013-05-27 15:30:00,
2013-05-27 10:35:00,53.6,52.7,29.65,SE,134,9.0,13.0,97,0.00,,,0.15,VWS V14.01,2013-05-27 15:35:00,
2013-05-27 10:40:00,53.9,53.0,29.65,SSE,157,6.0,14.0,97,0.00,,,0.15,VWS V14.01,2013-05-27 15:40:00,
2013-05-27 10:45:00,54.1,53.2,29.64,SE,129,5.0,5.0,97,0.00,,,0.15,VWS V14.01,2013-05-27 15:45:00,
2013-05-27 10:50:00,54.4,53.5,29.64,SSE,159,3.0,11.0,97,0.00,,,0.15,VWS V14.01,2013-05-27 15:50:00,
2013-05-27 10:55:00,54.5,53.6,29.64,SSE,167,6.0,11.0,97,0.00,,,0.15,VWS V14.01,2013-05-27 15:55:00,
2013-05-27 11:00:00,54.7,53.8,29.64,SE,136,8.0,8.0,97,0.00,,,0.15,VWS V14.01,2013-05-27 16:00:00,
2013-05-27 11:05:00,54.6,53.4,29.64,ESE,111,11.0,12.0,96,0.00,,,0.15,VWS V14.01,2013-05-27 16:05:00,
2013-05-27 11:10:00,55.0,53.8,29.64,South,171,6.0,12.0,96,0.00,,,0.15,VWS V14.01,2013-05-27 16:10:00,
2013-05-27 11:15:00,55.0,53.5,29.65,South,169,3.0,4.0,95,0.00,,,0.15,VWS V14.01,2013-05-27 16:15:00,
2013-05-27 11:20:00,55.2,53.7,29.65,SE,146,9.0,10.0,95,0.00,,,0.15,VWS V14.01,2013-05-27 16:20:00,
2013-05-27 11:25:00,55.1,53.6,29.65,South,183,9.0,14.0,95,0.00,,,0.15,VWS V14.01,2013-05-27 16:25:00,
2013-05-27 11:30:00,55.3,53.5,29.65,South,180,9.0,10.0,94,0.00,,,0.15,VWS V14.01,2013-05-27 16:30:00,
2013-05-27 11:35:00,55.3,53.5,29.65,SE,146,6.0,12.0,94,0.00,,,0.15,VWS V14.01,2013-05-27 16:35:00,
2013-05-27 11:40:00,55.6,53.8,29.65,SE,140,9.0,12.0,94,0.00,,,0.15,VWS V14.01,2013-05-27 16:40:00,
2013-05-27 11:45:00,55.7,53.9,29.65,South,169,9.0,9.0,94,0.00,,,0.15,VWS V14.01,2013-05-27 16:45:00,
2013-05-27 11:50:00,55.8,54.0,29.65,SE,130,3.0,11.0,94,0.00,,,0.15,VWS V14.01,2013-05-27 16:50:00,
2013-05-27 11:55:00,55.9,53.8,29.65,South,171,8.0,11.0,93,0.00,,,0.15,VWS V14.01,2013-05-27 16:55:00,
2013-05-27 12:00:00,56.2,54.1,29.65,SE,135,5.0,11.0,93,0.00,,,0.15,VWS V14.01,2013-05-27 17:00:00,
2013-05-27 12:05:00,56.3,54.2,29.65,SSE,162,5.0,11.0,93,0.00,,,0.15,VWS V14.01,2013-05-27 17:05:00,
2013-05-27 12:10:00,56.5,54.1,29.65,SSE,156,6.0,12.0,92,0.00,,,0.15,VWS V14.01,2013-05-27 17:10:00,
2013-05-27 12:15:00,56.6,53.9,29.64,SE,139,9.0,9.0,91,0.00,,,0.15,VWS V14.01,2013-05-27 17:15:00,
2013-05-27 12:20:00,56.7,54.0,29.65,SE,140,8.0,11.0,91,0.00,,,0.15,VWS V14.01,2013-05-27 17:20:00,
2013-05-27 12:25:00,56.8,54.1,29.65,East,96,10.0,13.0,91,0.00,,,0.15,VWS V14.01,2013-05-27 17:25:00,
2013-05-27 12:30:00,57.1,54.4,29.65,SSE,153,5.0,13.0,91,0.00,,,0.15,VWS V14.01,2013-05-27 17:30:00,
2013-05-27 12:35:00,57.4,54.4,29.65,ENE,71,3.0,11.0,90,0.00,,,0.15,VWS V14.01,2013-05-27 17:35:00,
2013-05-27 12:40:00,57.5,54.5,29.65,SE,144,3.0,12.0,90,0.00,,,0.15,VWS V14.01,2013-05-27 17:40:00,
2013-05-27 12:45:00,57.7,54.4,29.65,SE,145,8.0,12.0,89,0.00,,,0.15,VWS V14.01,2013-05-27 17:45:00,
2013-05-27 12:50:00,57.8,54.8,29.65,SE,136,3.0,11.0,90,0.00,,,0.15,VWS V14.01,2013-05-27 17:50:00,
2013-05-27 12:55:00,58.1,55.1,29.65,East,93,2.0,11.0,90,0.00,,,0.15,VWS V14.01,2013-05-27 17:55:00,
2013-05-27 13:00:00,58.2,54.9,29.65,SSE,157,7.0,14.0,89,0.00,,,0.15,VWS V14.01,2013-05-27 18:00:00,
2013-05-27 13:05:00,58.1,54.5,29.65,SSE,158,7.0,12.0,88,0.00,,,0.15,VWS V14.01,2013-05-27 18:05:00,
2013-05-27 13:10:00,58.4,54.8,29.65,SE,138,6.0,12.0,88,0.00,,,0.15,VWS V14.01,2013-05-27 18:10:00,
2013-05-27 13:15:00,58.7,55.1,29.65,SSE,154,7.0,12.0,88,0.00,,,0.15,VWS V14.01,2013-05-27 18:15:00,
2013-05-27 13:20:00,58.8,55.2,29.64,SSE,155,6.0,11.0,88,0.00,,,0.15,VWS V14.01,2013-05-27 18:20:00,
2013-05-27 13:25:00,59.1,55.5,29.64,SE,142,7.0,11.0,88,0.00,,,0.15,VWS V14.01,2013-05-27 18:25:00,
2013-05-27 13:30:00,59.4,55.4,29.64,SSE,149,9.0,11.0,87,0.00,,,0.15,VWS V14.01,2013-05-27 18:30:00,
2013-05-27 13:35:00,59.8,55.5,29.64,SE,125,6.0,10.0,86,0.00,,,0.15,VWS V14.01,2013-05-27 18:35:00,
2013-05-27 13:40:00,60.0,55.7,29.64,SSE,150,3.0,11.0,86,0.00,,,0.15,VWS V14.01,2013-05-27 18:40:00,
2013-05-27 13:45:00,60.4,55.8,29.63,SE,141,5.0,11.0,85,0.00,,,0.15,VWS V14.01,2013-05-27 18:45:00,
2013-05-27 13:50:00,60.7,56.1,29.63,East,80,3.0,8.0,85,0.00,,,0.15,VWS V14.01,2013-05-27 18:50:00,
2013-05-27 13:55:00,60.7,55.8,29.63,SE,132,3.0,8.0,84,0.00,,,0.15,VWS V14.01,2013-05-27 18:55:00,
2013-05-27 14:00:00,60.7,56.1,29.63,SE,128,0.0,8.0,85,0.00,,,0.15,VWS V14.01,2013-05-27 19:00:00,
2013-05-27 14:05:00,60.8,56.2,29.63,SE,128,3.0,6.0,85,0.00,,,0.15,VWS V14.01,2013-05-27 19:05:00,
2013-05-27 14:10:00,61.1,56.1,29.62,East,94,0.0,6.0,84,0.00,,,0.15,VWS V14.01,2013-05-27 19:10:00,
2013-05-27 14:15:00,61.2,55.9,29.62,ESE,122,2.0,7.0,83,0.00,,,0.15,VWS V14.01,2013-05-27 19:15:00,
2013-05-27 14:20:00,61.3,56.0,29.61,ESE,112,3.0,9.0,83,0.00,,,0.15,VWS V14.01,2013-05-27 19:20:00,
2013-05-27 14:25:00,61.3,56.0,29.61,East,98,2.0,9.0,83,0.00,,,0.15,VWS V14.01,2013-05-27 19:25:00,
2013-05-27 14:30:00,61.1,56.1,29.61,NE,50,3.0,9.0,84,0.00,,,0.15,VWS V14.01,2013-05-27 19:30:00,
2013-05-27 14:35:00,61.0,56.4,29.61,ENE,57,0.0,6.0,85,0.00,,,0.15,VWS V14.01,2013-05-27 19:35:00,
2013-05-27 14:40:00,61.0,56.4,29.61,ENE,77,4.0,6.0,85,0.00,,,0.15,VWS V14.01,2013-05-27 19:40:00,
2013-05-27 14:45:00,61.2,56.6,29.61,ENE,78,1.0,6.0,85,0.00,,,0.15,VWS V14.01,2013-05-27 19:45:00,
2013-05-27 14:50:00,61.4,56.4,29.61,NNE,28,4.0,6.0,84,0.00,,,0.15,VWS V14.01,2013-05-27 19:50:00,
2013-05-27 14:55:00,61.5,56.5,29.61,NE,55,2.0,6.0,84,0.00,,,0.15,VWS V14.01,2013-05-27 19:55:00,
2013-05-27 15:00:00,61.5,56.5,29.61,ENE,57,3.0,6.0,84,0.00,,,0.15,VWS V14.01,2013-05-27 20:00:00,
2013-05-27 15:05:00,61.7,56.4,29.60,ESE,121,7.0,10.0,83,0.00,,,0.15,VWS V14.01,2013-05-27 20:05:00,
2013-05-27 15:10:00,61.9,56.6,29.60,ESE,115,4.0,10.0,83,0.00,,,0.15,VWS V14.01,2013-05-27 20:10:00,
2013-05-27 15:15:00,62.0,56.3,29.60,SSE,161,4.0,10.0,82,0.00,,,0.15,VWS V14.01,2013-05-27 20:15:00,
2013-05-27 15:20:00,62.0,56.3,29.60,ESE,116,2.0,7.0,82,0.00,,,0.15,VWS V14.01,2013-05-27 20:20:00,
2013-05-27 15:25:00,61.9,56.2,29.60,SE,138,6.0,8.0,82,0.00,,,0.15,VWS V14.01,2013-05-27 20:25:00,
2013-05-27 15:30:00,61.7,56.4,29.60,SSE,148,7.0,8.0,83,0.00,,,0.15,VWS V14.01,2013-05-27 20:30:00,
2013-05-27 15:35:00,61.6,56.3,29.60,SE,127,1.0,8.0,83,0.00,,,0.15,VWS V14.01,2013-05-27 20:35:00,
2013-05-27 15:40:00,61.6,56.3,29.60,SE,137,4.0,11.0,83,0.00,,,0.15,VWS V14.01,2013-05-27 20:40:00,
2013-05-27 15:45:00,61.5,56.2,29.60,SE,137,6.0,11.0,83,0.00,,,0.15,VWS V14.01,2013-05-27 20:45:00,
2013-05-27 15:50:00,61.4,56.1,29.60,SSE,153,5.0,8.0,83,0.00,,,0.15,VWS V14.01,2013-05-27 20:50:00,
2013-05-27 15:55:00,61.4,56.4,29.61,SSE,164,3.0,8.0,84,0.00,,,0.15,VWS V14.01,2013-05-27 20:55:00,
2013-05-27 16:00:00,61.3,56.3,29.61,SSE,150,4.0,8.0,84,0.00,,,0.15,VWS V14.01,2013-05-27 21:00:00,
2013-05-27 16:05:00,61.2,56.2,29.61,SSE,157,2.0,10.0,84,0.00,,,0.15,VWS V14.01,2013-05-27 21:05:00,
2013-05-27 16:10:00,61.1,56.5,29.61,SE,139,2.0,10.0,85,0.00,,,0.15,VWS V14.01,2013-05-27 21:10:00,
2013-05-27 16:15:00,61.1,56.5,29.61,SSE,159,6.0,10.0,85,0.00,,,0.15,VWS V14.01,2013-05-27 21:15:00,
2013-05-27 16:20:00,61.0,56.4,29.61,SSE,157,7.0,8.0,85,0.00,,,0.15,VWS V14.01,2013-05-27 21:20:00,
2013-05-27 16:25:00,60.9,56.6,29.61,SE,146,4.0,10.0,86,0.00,,,0.15,VWS V14.01,2013-05-27 21:25:00,
2013-05-27 16:30:00,60.8,56.8,29.61,SSE,162,5.0,10.0,87,0.00,,,0.15,VWS V14.01,2013-05-27 21:30:00,
2013-05-27 16:35:00,60.5,56.5,29.61,SE,145,4.0,9.0,87,0.00,,,0.15,VWS V14.01,2013-05-27 21:35:00,
2013-05-27 16:40:00,60.3,56.6,29.61,SE,130,3.0,10.0,88,0.00,,,0.15,VWS V14.01,2013-05-27 21:40:00,
2013-05-27 16:45:00,60.4,56.7,29.61,SSE,152,4.0,10.0,88,0.00,,,0.15,VWS V14.01,2013-05-27 21:45:00,
2013-05-27 16:50:00,60.4,56.7,29.60,SSE,149,5.0,8.0,88,0.00,,,0.15,VWS V14.01,2013-05-27 21:50:00,
2013-05-27 16:55:00,60.4,56.7,29.60,SSE,155,5.0,10.0,88,0.00,,,0.15,VWS V14.01,2013-05-27 21:55:00,
2013-05-27 17:00:00,60.5,56.8,29.60,SSE,157,6.0,10.0,88,0.00,,,0.15,VWS V14.01,2013-05-27 22:00:00,
2013-05-27 17:05:00,60.4,56.7,29.60,South,169,8.0,9.0,88,0.00,,,0.15,VWS V14.01,2013-05-27 22:05:00,
2013-05-27 17:10:00,60.4,56.7,29.60,SSE,157,7.0,12.0,88,0.00,,,0.15,VWS V14.01,2013-05-27 22:10:00,
2013-05-27 17:15:00,60.2,56.5,29.60,SSE,156,8.0,12.0,88,0.00,,,0.15,VWS V14.01,2013-05-27 22:15:00,
2013-05-27 17:20:00,59.6,56.6,29.60,SSE,163,8.0,15.0,90,0.00,,,0.15,VWS V14.01,2013-05-27 22:20:00,
2013-05-27 17:25:00,59.1,56.4,29.60,SE,142,7.0,15.0,91,0.01,,,0.16,VWS V14.01,2013-05-27 22:25:00,
2013-05-27 17:30:00,58.6,56.2,29.60,SSE,159,6.0,15.0,92,0.01,,,0.16,VWS V14.01,2013-05-27 22:30:00,
2013-05-27 17:35:00,58.5,56.4,29.61,South,171,6.0,10.0,93,0.03,,,0.18,VWS V14.01,2013-05-27 22:35:00,
2013-05-27 17:40:00,58.4,56.6,29.61,SSE,165,2.0,10.0,94,0.04,,,0.19,VWS V14.01,2013-05-27 22:40:00,
2013-05-27 17:45:00,58.3,56.5,29.61,South,189,4.0,14.0,94,0.06,,,0.21,VWS V14.01,2013-05-27 22:45:00,
2013-05-27 17:50:00,58.1,56.3,29.62,SSW,196,9.0,13.0,94,0.16,,,0.31,VWS V14.01,2013-05-27 22:50:00,
2013-05-27 17:55:00,58.0,56.5,29.61,SSW,211,5.0,13.0,95,0.17,,,0.32,VWS V14.01,2013-05-27 22:55:00,
2013-05-27 18:00:00,58.0,56.5,29.60,SSE,155,6.0,13.0,95,0.18,,,0.33,VWS V14.01,2013-05-27 23:00:00,
2013-05-27 18:05:00,58.0,56.5,29.60,SSE,159,7.0,10.0,95,0.19,,,0.34,VWS V14.01,2013-05-27 23:05:00,
2013-05-27 18:10:00,58.0,56.5,29.59,SSE,149,5.0,10.0,95,0.20,,,0.35,VWS V14.01,2013-05-27 23:10:00,
2013-05-27 18:15:00,58.0,56.5,29.60,SE,132,5.0,10.0,95,0.22,,,0.37,VWS V14.01,2013-05-27 23:15:00,
2013-05-27 18:20:00,58.0,56.5,29.59,SSE,165,3.0,9.0,95,0.24,,,0.39,VWS V14.01,2013-05-27 23:20:00,
2013-05-27 18:25:00,57.9,56.4,29.59,SSE,159,6.0,10.0,95,0.25,,,0.40,VWS V14.01,2013-05-27 23:25:00,
2013-05-27 18:30:00,57.9,56.4,29.59,SSE,166,4.0,10.0,95,0.25,,,0.40,VWS V14.01,2013-05-27 23:30:00,
2013-05-27 18:35:00,57.8,56.3,29.59,SSE,163,4.0,10.0,95,0.25,,,0.41,VWS V14.01,2013-05-27 23:35:00,
2013-05-27 18:40:00,57.8,56.6,29.58,SSE,157,1.0,10.0,96,0.26,,,0.42,VWS V14.01,2013-05-27 23:40:00,
2013-05-27 18:45:00,57.8,56.6,29.58,SSE,152,0.0,10.0,96,0.27,,,0.43,VWS V14.01,2013-05-27 23:45:00,
2013-05-27 18:50:00,57.7,56.5,29.57,SE,134,0.0,4.0,96,0.23,,,0.44,VWS V14.01,2013-05-27 23:50:00,
2013-05-27 18:55:00,57.7,56.5,29.56,SE,138,0.0,4.0,96,0.25,,,0.46,VWS V14.01,2013-05-27 23:55:00,
2013-05-27 19:00:00,57.6,56.4,29.55,SE,138,0.0,4.0,96,0.26,,,0.47,VWS V14.01,2013-05-28 00:00:00,
2013-05-27 19:05:00,57.6,56.4,29.54,SE,133,0.0,2.0,96,0.15,,,0.48,VWS V14.01,2013-05-28 00:05:00,
2013-05-27 19:10:00,57.6,56.4,29.53,East,86,1.0,3.0,96,0.16,,,0.49,VWS V14.01,2013-05-28 00:10:00,
2013-05-27 19:15:00,57.7,56.5,29.52,NE,56,2.0,8.0,96,0.16,,,0.49,VWS V14.01,2013-05-28 00:15:00,
2013-05-27 19:20:00,57.8,56.6,29.52,NE,37,4.0,9.0,96,0.12,,,0.49,VWS V14.01,2013-05-28 00:20:00,
2013-05-27 19:25:00,57.9,56.7,29.52,NE,37,1.0,9.0,96,0.12,,,0.49,VWS V14.01,2013-05-28 00:25:00,
2013-05-27 19:30:00,57.9,56.7,29.51,NE,43,3.0,9.0,96,0.12,,,0.49,VWS V14.01,2013-05-28 00:30:00,
2013-05-27 19:35:00,57.8,56.6,29.52,ENE,65,0.0,5.0,96,0.09,,,0.49,VWS V14.01,2013-05-28 00:35:00,
2013-05-27 19:40:00,57.8,56.6,29.52,SE,131,4.0,6.0,96,0.09,,,0.49,VWS V14.01,2013-05-28 00:40:00,
2013-05-27 19:45:00,57.8,56.6,29.52,ESE,107,4.0,6.0,96,0.09,,,0.49,VWS V14.01,2013-05-28 00:45:00,
2013-05-27 19:50:00,57.8,56.6,29.51,ESE,102,0.0,6.0,96,0.06,,,0.49,VWS V14.01,2013-05-28 00:50:00,
2013-05-27 19:55:00,57.8,56.6,29.51,East,98,1.0,6.0,96,0.06,,,0.49,VWS V14.01,2013-05-28 00:55:00,
2013-05-27 20:00:00,57.8,56.9,29.51,ESE,103,1.0,6.0,97,0.06,,,0.49,VWS V14.01,2013-05-28 01:00:00,
2013-05-27 20:05:00,57.8,56.9,29.52,ESE,121,2.0,7.0,97,0.02,,,0.49,VWS V14.01,2013-05-28 01:05:00,
2013-05-27 20:10:00,57.8,56.9,29.52,ESE,111,0.0,7.0,97,0.02,,,0.49,VWS V14.01,2013-05-28 01:10:00,
2013-05-27 20:15:00,57.8,56.9,29.53,SE,142,7.0,9.0,97,0.02,,,0.49,VWS V14.01,2013-05-28 01:15:00,
2013-05-27 20:20:00,57.8,56.9,29.54,SE,130,6.0,13.0,97,0.00,,,0.49,VWS V14.01,2013-05-28 01:20:00,
2013-05-27 20:25:00,57.8,56.9,29.54,SSE,147,4.0,13.0,97,0.00,,,0.49,VWS V14.01,2013-05-28 01:25:00,
2013-05-27 20:30:00,57.8,56.9,29.54,SE,138,8.0,13.0,97,0.00,,,0.49,VWS V14.01,2013-05-28 01:30:00,
2013-05-27 20:35:00,57.8,56.9,29.54,SE,124,7.0,11.0,97,0.00,,,0.49,VWS V14.01,2013-05-28 01:35:00,
2013-05-27 20:40:00,57.7,56.8,29.54,SSE,149,7.0,11.0,97,0.00,,,0.49,VWS V14.01,2013-05-28 01:40:00,
2013-05-27 20:45:00,57.7,56.5,29.54,ESE,123,1.0,11.0,96,0.00,,,0.49,VWS V14.01,2013-05-28 01:45:00,
2013-05-27 20:50:00,57.7,56.5,29.54,SE,140,5.0,9.0,96,0.00,,,0.49,VWS V14.01,2013-05-28 01:50:00,
2013-05-27 20:55:00,57.6,56.4,29.54,SE,144,4.0,9.0,96,0.00,,,0.49,VWS V14.01,2013-05-28 01:55:00,
2013-05-27 21:00:00,57.7,56.5,29.53,SE,124,6.0,9.0,96,0.00,,,0.49,VWS V14.01,2013-05-28 02:00:00,
2013-05-27 21:05:00,57.7,56.5,29.53,ESE,107,2.0,7.0,96,0.00,,,0.49,VWS V14.01,2013-05-28 02:05:00,
2013-05-27 21:10:00,57.6,56.4,29.53,East,88,2.0,8.0,96,0.00,,,0.49,VWS V14.01,2013-05-28 02:10:00,
2013-05-27 21:15:00,57.5,56.3,29.53,ESE,113,8.0,8.0,96,0.00,,,0.49,VWS V14.01,2013-05-28 02:15:00,
2013-05-27 21:20:00,57.3,56.1,29.53,SSE,153,7.0,10.0,96,0.00,,,0.49,VWS V14.01,2013-05-28 02:20:00,
2013-05-27 21:25:00,57.2,56.0,29.53,SE,146,7.0,10.0,96,0.00,,,0.49,VWS V14.01,2013-05-28 02:25:00,
2013-05-27 21:30:00,57.1,55.9,29.53,SE,137,9.0,10.0,96,0.00,,,0.49,VWS V14.01,2013-05-28 02:30:00,
2013-05-27 21:35:00,57.0,55.8,29.52,SSE,148,9.0,9.0,96,0.00,,,0.49,VWS V14.01,2013-05-28 02:35:00,
2013-05-27 21:40:00,56.9,55.7,29.52,SE,146,7.0,11.0,96,0.00,,,0.49,VWS V14.01,2013-05-28 02:40:00,
2013-05-27 21:45:00,56.9,55.7,29.52,ESE,123,5.0,11.0,96,0.00,,,0.49,VWS V14.01,2013-05-28 02:45:00,
2013-05-27 21:50:00,56.9,55.7,29.52,SSE,157,6.0,10.0,96,0.00,,,0.49,VWS V14.01,2013-05-28 02:50:00,
2013-05-27 21:55:00,56.8,55.6,29.53,SSE,159,5.0,10.0,96,0.00,,,0.49,VWS V14.01,2013-05-28 02:55:00,
2013-05-27 22:00:00,56.8,55.6,29.53,SSE,157,5.0,10.0,96,0.00,,,0.49,VWS V14.01,2013-05-28 03:00:00,
2013-05-27 22:05:00,56.8,55.6,29.52,SE,142,5.0,10.0,96,0.00,,,0.49,VWS V14.01,2013-05-28 03:05:00,
2013-05-27 22:10:00,56.8,55.6,29.52,SE,146,6.0,10.0,96,0.00,,,0.49,VWS V14.01,2013-05-28 03:10:00,
2013-05-27 22:15:00,56.8,55.6,29.52,SSE,159,10.0,15.0,96,0.00,,,0.49,VWS V14.01,2013-05-28 03:15:00,
2013-05-27 22:20:00,56.8,55.6,29.51,SE,134,9.0,11.0,96,0.00,,,0.49,VWS V14.01,2013-05-28 03:20:00,
2013-05-27 22:25:00,56.9,55.7,29.51,South,169,8.0,14.0,96,0.00,,,0.49,VWS V14.01,2013-05-28 03:25:00,
2013-05-27 22:30:00,56.9,55.7,29.52,ESE,118,7.0,15.0,96,0.00,,,0.49,VWS V14.01,2013-05-28 03:30:00,
2013-05-27 22:35:00,56.9,55.7,29.52,SSE,157,6.0,13.0,96,0.00,,,0.49,VWS V14.01,2013-05-28 03:35:00,
2013-05-27 22:40:00,56.9,55.7,29.52,SSE,150,8.0,13.0,96,0.00,,,0.49,VWS V14.01,2013-05-28 03:40:00,
2013-05-27 22:45:00,56.9,55.7,29.52,SSE,157,6.0,13.0,96,0.00,,,0.49,VWS V14.01,2013-05-28 03:45:00,
2013-05-27 22:50:00,57.0,55.8,29.52,SE,138,12.0,12.0,96,0.00,,,0.49,VWS V14.01,2013-05-28 03:50:00,
2013-05-27 22:55:00,57.0,55.8,29.52,SE,146,9.0,12.0,96,0.00,,,0.49,VWS V14.01,2013-05-28 03:55:00,
2013-05-27 23:00:00,57.0,55.8,29.52,SE,145,3.0,12.0,96,0.00,,,0.49,VWS V14.01,2013-05-28 04:00:00,
2013-05-27 23:01:00,57.0,55.8,29.52,SE,138,3.0,5.0,96,0.00,,,0.49,VWS V14.01,2013-05-28 04:01:00,
2013-05-27 23:06:00,57.0,55.8,29.52,SSE,151,7.0,9.0,96,0.00,,,0.49,VWS V14.01,2013-05-28 04:06:00,
2013-05-27 23:11:00,57.0,55.8,29.52,South,173,7.0,10.0,96,0.00,,,0.49,VWS V14.01,2013-05-28 04:11:00,
2013-05-27 23:15:00,56.8,55.6,29.52,SE,133,8.0,15.0,96,0.00,,,0.49,VWS V14.01,2013-05-28 04:15:00,
2013-05-27 23:16:00,56.9,55.7,29.52,SSE,153,4.0,6.0,96,0.00,,,0.49,VWS V14.01,2013-05-28 04:16:00,
2013-05-27 23:21:00,56.9,55.7,29.52,SE,146,4.0,10.0,96,0.00,,,0.49,VWS V14.01,2013-05-28 04:21:00,
2013-05-27 23:26:00,56.9,55.7,29.52,SSE,162,8.0,10.0,96,0.00,,,0.49,VWS V14.01,2013-05-28 04:26:00,
2013-05-27 23:30:00,56.9,55.7,29.52,SSE,158,8.0,15.0,96,0.00,,,0.49,VWS V14.01,2013-05-28 04:30:00,
2013-05-27 23:31:00,56.9,55.7,29.52,SSE,152,4.0,6.0,96,0.00,,,0.49,VWS V14.01,2013-05-28 04:31:00,
2013-05-27 23:36:00,56.9,55.7,29.52,SE,139,6.0,7.0,96,0.00,,,0.49,VWS V14.01,2013-05-28 04:36:00,
2013-05-27 23:41:00,56.9,55.7,29.52,SE,130,4.0,7.0,96,0.00,,,0.49,VWS V14.01,2013-05-28 04:41:00,
2013-05-27 23:45:00,56.9,55.7,29.52,SE,140,7.0,13.0,96,0.00,,,0.49,VWS V14.01,2013-05-28 04:45:00,
2013-05-27 23:46:00,56.9,55.7,29.51,SE,136,3.0,6.0,96,0.00,,,0.49,VWS V14.01,2013-05-28 04:46:00,
2013-05-27 23:51:00,56.9,55.7,29.51,ESE,121,0.0,7.0,96,0.00,,,0.49,VWS V14.01,2013-05-28 04:51:00,
2013-05-27 23:56:00,56.8,55.6,29.50,ESE,111,2.0,8.0,96,0.00,,,0.49,VWS V14.01,2013-05-28 04:56:00,